createdAt,value
2023-04-03T00:01:21.361Z,0.17
2023-04-03T00:03:49.760Z,-0.03
2023-04-03T00:06:18.172Z,0.21
2023-04-03T00:08:47.972Z,-0.18
2023-04-03T00:11:17.366Z,0.12
2023-04-03T00:13:46.097Z,-0.09
2023-04-03T00:16:14.852Z,-0.12
2023-04-03T00:18:43.711Z,-0.18
2023-04-03T00:21:15.023Z,-0.16
2023-04-03T00:23:43.573Z,-0.11
2023-04-03T00:26:13.423Z,-0.07
2023-04-03T00:28:42.036Z,0.02
2023-04-03T00:31:10.601Z,-0.03
2023-04-03T00:33:39.340Z,0.08
2023-04-03T00:36:10.209Z,0.11
2023-04-03T00:38:39.056Z,0.17
2023-04-03T00:41:07.603Z,-0.04
2023-04-03T00:43:37.374Z,0.07
2023-04-03T00:46:06.008Z,-0.33
2023-04-03T00:48:36.927Z,-0.14
2023-04-03T00:51:07.991Z,-0.15
2023-04-03T00:53:41.910Z,-0.01
2023-04-03T00:56:13.160Z,-0.14
2023-04-03T00:58:47.769Z,-0.09
2023-04-03T01:01:21.143Z,-0.05
2023-04-03T01:03:49.517Z,0.08
2023-04-03T01:06:21.571Z,-0.08
2023-04-03T01:08:52.143Z,-0.18
2023-04-03T01:11:22.104Z,-0.24
2023-04-03T01:13:51.970Z,-0.12
2023-04-03T01:16:20.852Z,-0.14
2023-04-03T01:18:49.390Z,-0.04
2023-04-03T01:21:52.644Z,-0.08
2023-04-03T01:24:30.401Z,-0.59
2023-04-03T01:26:58.761Z,-0.27
2023-04-03T01:29:28.517Z,-0.20
2023-04-03T01:31:59.486Z,-0.00
2023-04-03T01:34:28.746Z,-0.22
2023-04-03T01:36:57.316Z,-0.09
2023-04-03T01:39:25.996Z,-0.29
2023-04-03T01:41:54.489Z,-0.40
2023-04-03T01:44:22.831Z,-0.40
2023-04-03T01:46:51.083Z,-0.44
2023-04-03T01:49:21.148Z,-0.64
2023-04-03T01:51:49.478Z,-0.71
2023-04-03T01:54:17.839Z,-0.67
2023-04-03T01:56:46.097Z,-0.75
2023-04-03T01:59:14.796Z,-0.72
2023-04-03T02:01:43.202Z,-0.74
2023-04-03T02:04:11.896Z,-0.62
2023-04-03T02:06:41.769Z,-0.82
2023-04-03T02:09:10.097Z,-0.93
2023-04-03T02:11:38.619Z,-0.90
2023-04-03T02:14:07.062Z,-0.74
2023-04-03T02:16:35.426Z,-0.60
2023-04-03T02:19:03.808Z,-0.55
2023-04-03T02:21:32.117Z,-0.47
2023-04-03T02:24:03.013Z,-0.24
2023-04-03T02:26:31.338Z,-0.37
2023-04-03T02:28:59.614Z,-0.58
2023-04-03T02:31:28.402Z,-0.56
2023-04-03T02:33:56.852Z,-0.61
2023-04-03T02:36:25.298Z,-0.83
2023-04-03T02:38:53.624Z,-0.86
2023-04-03T02:41:23.467Z,-1.00
2023-04-03T02:43:51.770Z,-1.10
2023-04-03T02:46:20.249Z,-1.33
2023-04-03T02:48:48.588Z,-1.00
2023-04-03T02:51:16.920Z,-1.02
2023-04-03T02:53:45.656Z,-0.85
2023-04-03T02:56:14.036Z,-0.83
2023-04-03T02:58:43.966Z,-1.04
2023-04-03T03:01:12.540Z,-0.89
2023-04-03T03:03:40.907Z,-1.05
2023-04-03T03:06:11.673Z,-0.94
2023-04-03T03:08:40.347Z,-0.95
2023-04-03T03:11:09.420Z,-0.89
2023-04-03T03:13:38.213Z,-0.81
2023-04-03T03:16:09.242Z,-0.95
2023-04-03T03:18:38.375Z,-0.94
2023-04-03T03:21:07.305Z,-0.96
2023-04-03T03:23:36.113Z,-0.98
2023-04-03T03:26:06.982Z,-0.97
2023-04-03T03:28:36.210Z,-1.06
2023-04-03T03:31:05.030Z,-1.04
2023-04-03T03:33:34.844Z,-0.99
2023-04-03T03:36:03.288Z,-1.11
2023-04-03T03:38:31.786Z,-1.21
2023-04-03T03:41:00.131Z,-1.55
2023-04-03T03:43:28.414Z,-1.36
2023-04-03T03:45:57.033Z,-1.18
2023-04-03T03:48:25.961Z,-1.25
2023-04-03T03:50:55.810Z,-1.07
2023-04-03T03:53:24.119Z,-1.35
2023-04-03T03:55:52.454Z,-1.23
2023-04-03T03:58:20.742Z,-1.44
2023-04-03T04:00:49.390Z,-1.35
2023-04-03T04:03:17.970Z,-1.49
2023-04-03T04:05:46.643Z,-1.78
2023-04-03T04:08:16.364Z,-1.72
2023-04-03T04:10:44.692Z,-1.63
2023-04-03T04:13:12.943Z,-1.56
2023-04-03T04:15:41.373Z,-1.59
2023-04-03T04:18:09.659Z,-1.51
2023-04-03T04:20:38.474Z,-1.43
2023-04-03T04:23:06.778Z,-1.60
2023-04-03T04:25:36.936Z,-1.50
2023-04-03T04:28:05.378Z,-1.65
2023-04-03T04:30:33.741Z,-1.71
2023-04-03T04:33:02.211Z,-1.48
2023-04-03T04:35:30.579Z,-1.58
2023-04-03T04:37:58.947Z,-1.34
2023-04-03T04:40:27.350Z,-1.34
2023-04-03T04:42:57.163Z,-1.30
2023-04-03T04:45:25.630Z,-1.38
2023-04-03T04:47:54.013Z,-1.54
2023-04-03T04:50:22.365Z,-1.67
2023-04-03T04:52:50.867Z,-1.56
2023-04-03T04:55:19.419Z,-1.54
2023-04-03T04:57:47.862Z,-1.57
2023-04-03T05:00:18.895Z,-1.77
2023-04-03T05:02:47.250Z,-1.65
2023-04-03T05:05:16.034Z,-1.79
2023-04-03T05:07:44.412Z,-1.71
2023-04-03T05:10:12.742Z,-1.62
2023-04-03T05:12:41.721Z,-1.70
2023-04-03T05:15:11.488Z,-1.90
2023-04-03T05:17:41.205Z,-1.85
2023-04-03T05:20:10.306Z,-2.04
2023-04-03T05:22:38.628Z,-1.96
2023-04-03T05:25:08.344Z,-1.92
2023-04-03T05:27:36.849Z,-2.09
2023-04-03T05:30:06.010Z,-2.25
2023-04-03T05:32:35.127Z,-2.11
2023-04-03T05:35:05.535Z,-2.03
2023-04-03T05:37:34.164Z,-1.95
2023-04-03T05:40:02.549Z,-1.72
2023-04-03T05:42:31.042Z,-2.67
2023-04-03T05:44:59.361Z,-2.15
2023-04-03T05:47:27.810Z,-2.35
2023-04-03T05:49:56.116Z,-2.22
2023-04-03T05:52:29.545Z,-2.20
2023-04-03T05:54:58.219Z,-1.87
2023-04-03T05:57:26.701Z,-1.91
2023-04-03T05:59:55.287Z,-1.98
2023-04-03T06:02:25.625Z,-1.82
2023-04-03T06:04:54.354Z,-1.85
2023-04-03T06:07:24.894Z,-2.06
2023-04-03T06:09:54.650Z,-2.00
2023-04-03T06:12:22.898Z,-2.18
2023-04-03T06:14:52.263Z,-2.03
2023-04-03T06:17:21.444Z,-1.96
2023-04-03T06:19:50.765Z,-2.10
2023-04-03T06:22:19.125Z,-2.15
2023-04-03T06:24:47.730Z,-2.07
2023-04-03T06:27:17.953Z,-2.12
2023-04-03T06:29:46.793Z,-2.04
2023-04-03T06:32:15.122Z,-2.43
2023-04-03T06:34:43.861Z,-2.26
2023-04-03T06:37:17.505Z,-2.07
2023-04-03T06:39:46.350Z,-2.06
2023-04-03T06:42:17.209Z,-1.95
2023-04-03T06:44:45.910Z,-2.03
2023-04-03T06:47:15.166Z,-1.81
2023-04-03T06:49:44.167Z,-1.78
2023-04-03T06:52:14.291Z,-1.69
2023-04-03T06:54:42.976Z,-2.37
2023-04-03T06:57:11.711Z,-1.52
2023-04-03T06:59:41.843Z,-1.49
2023-04-03T07:02:12.463Z,-1.25
2023-04-03T07:04:41.156Z,-1.15
2023-04-03T07:07:10.228Z,-1.46
2023-04-03T07:09:38.660Z,-1.59
2023-04-03T07:12:07.331Z,-1.68
2023-04-03T07:14:35.709Z,-1.50
2023-04-03T07:17:05.508Z,-1.45
2023-04-03T07:19:34.005Z,-1.34
2023-04-03T07:22:02.354Z,-1.02
2023-04-03T07:24:30.674Z,-1.00
2023-04-03T07:26:58.968Z,-0.83
2023-04-03T07:29:27.544Z,-1.26
2023-04-03T07:31:56.573Z,-1.23
2023-04-03T07:34:26.460Z,-1.23
2023-04-03T07:36:54.782Z,-1.34
2023-04-03T07:39:23.030Z,-1.35
2023-04-03T07:41:51.577Z,-1.42
2023-04-03T07:44:19.956Z,-1.21
2023-04-03T07:46:48.260Z,-1.24
2023-04-03T07:49:17.991Z,-1.64
2023-04-03T07:51:48.034Z,-1.28
2023-04-03T07:54:16.426Z,-1.44
2023-04-03T07:56:44.994Z,-1.41
2023-04-03T07:59:13.625Z,-1.32
2023-04-03T08:01:41.883Z,-1.47
2023-04-03T08:04:10.556Z,-1.43
2023-04-03T08:06:46.618Z,-1.31
2023-04-03T08:09:17.594Z,-1.51
2023-04-03T08:11:46.625Z,-1.28
2023-04-03T08:14:19.689Z,-1.30
2023-04-03T08:16:49.510Z,-1.20
2023-04-03T08:19:26.113Z,-1.16
2023-04-03T08:21:55.715Z,-1.00
2023-04-03T08:24:25.559Z,-1.03
2023-04-03T08:26:54.049Z,-0.98
2023-04-03T08:29:22.419Z,-0.94
2023-04-03T08:31:51.321Z,-0.82
2023-04-03T08:34:20.292Z,-0.75
2023-04-03T08:36:48.757Z,-0.85
2023-04-03T08:39:17.041Z,-0.65
2023-04-03T08:41:49.134Z,-0.64
2023-04-03T08:44:27.203Z,-0.50
2023-04-03T08:47:09.719Z,-0.22
2023-04-03T08:49:48.299Z,-0.31
2023-04-03T08:52:20.178Z,0.03
2023-04-03T08:54:53.658Z,-0.32
2023-04-03T08:57:31.944Z,0.07
2023-04-03T09:00:03.973Z,0.15
2023-04-03T09:02:37.767Z,-0.01
2023-04-03T09:05:14.910Z,0.09
2023-04-03T09:07:49.313Z,-0.19
2023-04-03T09:10:22.016Z,-0.02
2023-04-03T09:13:00.455Z,-0.04
2023-04-03T09:15:38.466Z,-0.10
2023-04-03T09:18:16.926Z,0.29
2023-04-03T09:20:52.467Z,0.42
2023-04-03T09:23:31.276Z,0.34
2023-04-03T09:26:06.254Z,0.20
2023-04-03T09:28:49.245Z,-0.02
2023-04-03T09:31:25.109Z,0.13
2023-04-03T09:33:55.572Z,0.37
2023-04-03T09:36:46.720Z,0.45
2023-04-03T09:39:18.535Z,0.44
2023-04-03T09:42:00.241Z,0.56
2023-04-03T09:44:32.748Z,0.50
2023-04-03T09:47:01.550Z,1.14
2023-04-03T09:49:30.105Z,1.13
2023-04-03T09:51:58.411Z,1.00
2023-04-03T09:54:40.684Z,1.20
2023-04-03T09:57:13.161Z,1.44
2023-04-03T09:59:48.559Z,1.35
2023-04-03T10:02:34.716Z,1.30
2023-04-03T10:07:38.277Z,1.68
2023-04-03T10:10:24.994Z,1.72
2023-04-03T10:13:06.861Z,1.82
2023-04-03T10:15:42.510Z,2.17
2023-04-03T10:18:28.646Z,1.79
2023-04-03T10:21:02.607Z,1.85
2023-04-03T10:23:39.553Z,1.73
2023-04-03T10:26:17.002Z,1.59
2023-04-03T10:28:51.537Z,1.62
2023-04-03T10:31:28.170Z,1.71
2023-04-03T10:34:07.297Z,1.78
2023-04-03T10:36:41.473Z,1.86
2023-04-03T10:39:23.313Z,1.95
2023-04-03T10:42:15.330Z,2.09
2023-04-03T10:44:59.420Z,2.02
2023-04-03T10:47:37.294Z,1.86
2023-04-03T10:50:29.016Z,1.88
2023-04-03T10:53:03.016Z,1.54
2023-04-03T10:55:38.566Z,1.83
2023-04-03T10:58:08.703Z,1.46
2023-04-03T11:00:42.193Z,1.67
2023-04-03T11:03:16.809Z,1.50
2023-04-03T11:05:47.202Z,1.36
2023-04-03T11:08:27.525Z,1.24
2023-04-03T11:11:00.837Z,1.48
2023-04-03T11:13:35.738Z,1.07
2023-04-03T11:16:06.814Z,1.27
2023-04-03T11:18:42.229Z,0.94
2023-04-03T11:21:15.155Z,1.27
2023-04-03T11:23:49.643Z,1.27
2023-04-03T11:26:22.060Z,1.26
2023-04-03T11:28:55.836Z,1.54
2023-04-03T11:31:33.531Z,1.81
2023-04-03T11:34:16.030Z,2.48
2023-04-03T11:36:50.300Z,2.44
2023-04-03T11:39:26.260Z,2.58
2023-04-03T11:42:06.644Z,1.94
2023-04-03T11:44:41.178Z,2.06
2023-04-03T11:47:11.536Z,1.99
2023-04-03T11:50:01.072Z,1.77
2023-04-03T11:53:01.175Z,1.81
2023-04-03T11:56:00.988Z,1.50
2023-04-03T11:58:31.998Z,1.44
2023-04-03T12:01:07.178Z,1.83
2023-04-03T12:04:15.282Z,2.22
2023-04-03T12:07:19.118Z,2.24
2023-04-03T12:10:31.744Z,2.69
2023-04-03T12:13:05.173Z,2.20
2023-04-03T12:15:54.994Z,2.07
2023-04-03T12:18:59.732Z,2.30
2023-04-03T12:22:26.456Z,2.24
2023-04-03T12:24:56.250Z,2.29
2023-04-03T12:27:33.943Z,2.13
2023-04-03T12:30:19.385Z,2.38
2023-04-03T12:33:21.646Z,2.39
2023-04-03T12:36:03.938Z,2.33
2023-04-03T12:38:58.903Z,1.94
2023-04-03T12:41:39.874Z,2.09
2023-04-03T12:44:41.831Z,2.17
2023-04-03T12:47:29.751Z,2.02
2023-04-03T12:49:59.543Z,2.03
2023-04-03T12:52:43.516Z,2.03
2023-04-03T12:55:17.412Z,1.90
2023-04-03T12:57:47.605Z,1.70
2023-04-03T13:00:33.787Z,1.78
2023-04-03T13:03:03.691Z,2.03
2023-04-03T13:05:36.497Z,2.57
2023-04-03T13:08:08.706Z,2.85
2023-04-03T13:10:50.071Z,2.65
2023-04-03T13:13:19.995Z,2.51
2023-04-03T13:15:51.638Z,2.66
2023-04-03T13:18:34.283Z,2.71
2023-04-03T13:21:07.275Z,2.31
2023-04-03T13:23:39.364Z,2.40
2023-04-03T13:26:09.340Z,2.37
2023-04-03T13:28:41.833Z,2.39
2023-04-03T13:31:19.857Z,2.17
2023-04-03T13:33:58.855Z,2.26
2023-04-03T13:36:31.002Z,2.55
2023-04-03T13:39:07.035Z,2.91
2023-04-03T13:41:37.750Z,3.15
2023-04-03T13:44:28.938Z,2.79
2023-04-03T13:46:59.205Z,2.48
2023-04-03T13:49:35.179Z,2.81
2023-04-03T13:52:08.290Z,2.87
2023-04-03T13:54:39.662Z,2.69
2023-04-03T13:57:15.374Z,2.45
2023-04-03T13:59:45.585Z,2.49
2023-04-03T14:02:19.991Z,2.32
2023-04-03T14:05:01.176Z,2.91
2023-04-03T14:07:30.302Z,2.76
2023-04-03T14:09:58.967Z,2.51
2023-04-03T14:12:32.355Z,2.78
2023-04-03T14:15:07.653Z,2.85
2023-04-03T14:17:36.264Z,3.03
2023-04-03T14:20:05.449Z,3.13
2023-04-03T14:22:35.904Z,3.14
2023-04-03T14:25:04.707Z,2.69
2023-04-03T14:27:39.007Z,2.30
2023-04-03T14:30:15.876Z,2.27
2023-04-03T14:32:44.579Z,2.25
2023-04-03T14:35:13.117Z,2.53
2023-04-03T14:37:41.897Z,3.17
2023-04-03T14:40:15.423Z,3.13
2023-04-03T14:42:43.832Z,2.92
2023-04-03T14:45:15.179Z,3.12
2023-04-03T14:47:48.982Z,2.58
2023-04-03T14:50:20.435Z,2.61
2023-04-03T14:52:49.299Z,2.94
2023-04-03T14:55:20.890Z,2.83
2023-04-03T14:57:50.974Z,2.83
2023-04-03T15:00:23.360Z,2.31
2023-04-03T15:02:51.949Z,2.25
2023-04-03T15:05:20.793Z,2.39
2023-04-03T15:07:52.710Z,2.38
2023-04-03T15:10:23.285Z,2.46
2023-04-03T15:12:52.114Z,2.35
2023-04-03T15:15:24.244Z,2.63
2023-04-03T15:17:56.106Z,3.08
2023-04-03T15:20:27.544Z,2.60
2023-04-03T15:22:57.349Z,2.47
2023-04-03T15:25:26.538Z,2.23
2023-04-03T15:27:55.665Z,2.05
2023-04-03T15:30:25.547Z,2.16
2023-04-03T15:32:54.424Z,2.03
2023-04-03T15:35:23.304Z,2.24
2023-04-03T15:37:52.420Z,2.27
2023-04-03T15:40:21.072Z,2.13
2023-04-03T15:42:50.008Z,1.98
2023-04-03T15:45:19.348Z,1.94
2023-04-03T15:47:49.321Z,2.03
2023-04-03T15:50:17.749Z,2.19
2023-04-03T15:52:46.141Z,2.07
2023-04-03T15:55:14.421Z,2.10
2023-04-03T15:57:42.829Z,2.05
2023-04-03T16:00:12.517Z,2.22
2023-04-03T16:02:41.354Z,2.13
2023-04-03T16:05:12.429Z,2.38
2023-04-03T16:07:41.951Z,2.36
2023-04-03T16:10:12.708Z,1.66
2023-04-03T16:12:41.332Z,1.62
2023-04-03T16:15:10.938Z,1.96
2023-04-03T16:17:41.940Z,1.46
2023-04-03T16:20:14.094Z,1.61
2023-04-03T16:22:43.530Z,1.63
2023-04-03T16:25:13.280Z,1.85
2023-04-03T16:27:41.972Z,1.51
2023-04-03T16:30:11.899Z,1.36
2023-04-03T16:32:41.520Z,1.19
2023-04-03T16:35:12.132Z,1.21
2023-04-03T16:37:41.221Z,1.13
2023-04-03T16:40:11.285Z,1.19
2023-04-03T16:42:39.633Z,1.41
2023-04-03T16:45:09.336Z,1.29
2023-04-03T16:47:37.734Z,1.42
2023-04-03T16:50:07.033Z,1.63
2023-04-03T16:52:36.857Z,1.49
2023-04-03T16:55:05.665Z,1.25
2023-04-03T16:57:34.266Z,0.92
2023-04-03T17:00:02.498Z,0.90
2023-04-03T17:02:31.125Z,0.92
2023-04-03T17:04:59.749Z,1.20
2023-04-03T17:07:28.391Z,1.15
2023-04-03T17:09:58.530Z,0.97
2023-04-03T17:12:28.358Z,1.03
2023-04-03T17:14:57.446Z,1.08
2023-04-03T17:17:28.274Z,0.71
2023-04-03T17:19:57.328Z,1.13
2023-04-03T17:22:26.568Z,1.01
2023-04-03T17:24:54.853Z,0.92
2023-04-03T17:27:24.754Z,0.70
2023-04-03T17:29:53.102Z,0.64
2023-04-03T17:32:21.504Z,0.73
2023-04-03T17:34:50.500Z,0.80
2023-04-03T17:37:18.861Z,0.83
2023-04-03T17:39:47.735Z,0.95
2023-04-03T17:42:16.212Z,0.91
2023-04-03T17:44:46.002Z,0.79
2023-04-03T17:47:14.709Z,0.91
2023-04-03T17:49:43.181Z,0.86
2023-04-03T17:52:11.537Z,0.59
2023-04-03T17:54:39.820Z,0.69
2023-04-03T17:57:09.041Z,0.52
2023-04-03T17:59:37.457Z,0.03
2023-04-03T18:02:07.270Z,0.74
2023-04-03T18:04:35.607Z,0.65
2023-04-03T18:07:05.158Z,0.68
2023-04-03T18:09:35.116Z,0.78
2023-04-03T18:12:06.156Z,0.74
2023-04-03T18:14:37.348Z,0.85
2023-04-03T18:17:07.714Z,0.83
2023-04-03T18:19:37.506Z,0.75
2023-04-03T18:22:09.749Z,0.74
2023-04-03T18:24:38.533Z,0.68
2023-04-03T18:27:11.670Z,0.82
2023-04-03T18:29:42.844Z,0.82
2023-04-03T18:32:16.733Z,0.44
2023-04-03T18:34:45.182Z,0.80
2023-04-03T18:37:15.220Z,0.41
2023-04-03T18:39:44.070Z,0.62
2023-04-03T18:42:17.123Z,0.64
2023-04-03T18:44:50.408Z,0.08
2023-04-03T18:47:20.698Z,0.48
2023-04-03T18:49:49.124Z,0.56
2023-04-03T18:52:17.752Z,0.35
2023-04-03T18:54:46.440Z,0.38
2023-04-03T18:57:14.868Z,0.41
2023-04-03T18:59:43.268Z,0.50
2023-04-03T19:02:13.138Z,0.48
2023-04-03T19:04:43.180Z,0.56
2023-04-03T19:07:12.244Z,0.74
2023-04-03T19:09:41.338Z,0.52
2023-04-03T19:12:09.870Z,-0.14
2023-04-03T19:14:38.361Z,0.42
2023-04-03T19:17:08.399Z,0.37
2023-04-03T19:19:37.028Z,0.26
2023-04-03T19:22:07.898Z,0.54
2023-04-03T19:24:36.589Z,0.57
2023-04-03T19:27:05.025Z,0.44
2023-04-03T19:29:33.312Z,0.42
2023-04-03T19:32:01.986Z,0.36
2023-04-03T19:34:30.255Z,0.12
2023-04-03T19:36:59.151Z,0.49
2023-04-03T19:39:31.065Z,0.33
2023-04-03T19:41:59.691Z,0.27
2023-04-03T19:44:28.260Z,0.25
2023-04-03T19:46:56.778Z,0.39
2023-04-03T19:49:25.158Z,0.30
2023-04-03T19:51:54.643Z,0.21
2023-04-03T19:54:23.760Z,0.28
2023-04-03T19:56:53.578Z,0.21
2023-04-03T19:59:22.042Z,0.21
2023-04-03T20:01:50.463Z,0.18
2023-04-03T20:04:18.968Z,0.16
2023-04-03T20:06:48.404Z,0.17
2023-04-03T20:09:23.462Z,0.20
2023-04-03T20:11:53.904Z,0.36
2023-04-03T20:14:22.522Z,0.07
2023-04-03T20:16:51.058Z,0.01
2023-04-03T20:19:19.662Z,0.25
2023-04-03T20:21:48.467Z,0.22
2023-04-03T20:24:17.811Z,0.14
2023-04-03T20:26:47.419Z,0.12
2023-04-03T20:29:17.906Z,0.28
2023-04-03T20:31:46.919Z,0.10
2023-04-03T20:34:17.052Z,0.14
2023-04-03T20:36:49.610Z,0.13
2023-04-03T20:39:19.649Z,0.01
2023-04-03T20:41:48.056Z,0.07
2023-04-03T20:44:20.280Z,0.14
2023-04-03T20:46:53.490Z,0.04
2023-04-03T20:49:23.444Z,0.02
2023-04-03T20:51:54.187Z,-0.10
2023-04-03T20:54:24.271Z,-0.25
2023-04-03T20:56:54.443Z,0.10
2023-04-03T20:59:25.971Z,0.11
2023-04-03T21:01:55.144Z,0.10
2023-04-03T21:04:30.585Z,0.26
2023-04-03T21:07:39.484Z,0.06
2023-04-03T21:10:46.262Z,0.04
2023-04-03T21:13:52.826Z,-0.07
2023-04-03T21:16:24.723Z,-0.05
2023-04-03T21:19:11.481Z,-0.04
2023-04-03T21:21:41.748Z,-0.11
2023-04-03T21:24:11.417Z,-0.01
2023-04-03T21:26:41.579Z,0.12
2023-04-03T21:29:10.624Z,0.07
2023-04-03T21:31:49.984Z,0.12
2023-04-03T21:34:21.027Z,0.17
2023-04-03T21:36:50.713Z,0.17
2023-04-03T21:39:19.048Z,0.20
2023-04-03T21:41:47.412Z,0.16
2023-04-03T21:44:15.773Z,0.17
2023-04-03T21:46:44.501Z,0.08
2023-04-03T21:49:13.001Z,0.08
2023-04-03T21:51:43.318Z,0.40
2023-04-03T21:54:11.843Z,0.14
2023-04-03T21:56:40.207Z,-0.07
2023-04-03T21:59:08.901Z,0.15
2023-04-03T22:01:39.820Z,0.17
2023-04-03T22:04:08.080Z,0.09
2023-04-03T22:06:37.516Z,-0.58
2023-04-03T22:09:07.405Z,0.11
2023-04-03T22:11:38.391Z,0.14
2023-04-03T22:14:06.826Z,0.16
2023-04-03T22:16:35.639Z,0.14
2023-04-03T22:19:04.319Z,0.10
2023-04-03T22:21:33.739Z,0.13
2023-04-03T22:24:02.115Z,0.19
2023-04-03T22:26:32.093Z,0.20
2023-04-03T22:29:01.864Z,0.18
2023-04-03T22:31:30.247Z,0.24
2023-04-03T22:33:59.026Z,-0.07
2023-04-03T22:36:27.358Z,0.09
2023-04-03T22:38:57.496Z,0.09
2023-04-03T22:41:25.883Z,0.20
2023-04-03T22:43:56.143Z,0.12
2023-04-03T22:46:26.063Z,0.22
2023-04-03T22:48:54.705Z,0.05
2023-04-03T22:51:23.044Z,0.02
2023-04-03T22:53:51.303Z,-0.01
2023-04-03T22:56:19.933Z,0.02
2023-04-03T22:58:48.601Z,0.09
2023-04-03T23:01:20.342Z,0.07
2023-04-03T23:03:48.662Z,-0.01
2023-04-03T23:06:17.047Z,0.03
2023-04-03T23:08:45.610Z,0.08
2023-04-03T23:11:13.937Z,-0.26
2023-04-03T23:13:43.787Z,0.00
2023-04-03T23:16:12.296Z,-0.11
2023-04-03T23:18:43.851Z,-0.17
2023-04-03T23:21:12.237Z,-0.52
2023-04-03T23:23:40.857Z,-0.25
2023-04-03T23:26:10.002Z,-0.51
2023-04-03T23:28:38.397Z,-0.23
2023-04-03T23:31:07.878Z,-0.31
2023-04-03T23:33:36.441Z,-0.36
2023-04-03T23:36:09.807Z,-0.52
2023-04-03T23:38:38.288Z,-0.49
2023-04-03T23:41:06.776Z,-0.37
2023-04-03T23:43:35.128Z,-0.33
2023-04-03T23:46:03.614Z,-0.37
2023-04-03T23:48:32.030Z,-0.33
2023-04-03T23:51:00.335Z,-0.37
2023-04-03T23:53:30.020Z,-0.36
2023-04-03T23:55:58.664Z,-0.37
2023-04-03T23:58:26.921Z,-0.41
